Time;durP1;ratioP1;P1;durP2;ratioP2;P2;SDS_P1;SDS_P2;PMS_P1;PMS_P2;Temp;Humidity;BMP_temperature;BMP_pressure;BME280_temperature;BME280_humidity;BME280_pressure;Samples;Min_cycle;Max_cycle;Signal;HPM_P1;HPM_P2
2021/08/04 00:02:56;;;;;;;0.45;0.40;;;24.40;57.50;;;;;;6244342;28;20037;-69
2021/08/04 00:05:57;;;;;;;1.02;0.80;;;24.40;57.60;;;;;;6244544;28;20033;-69
2021/08/04 00:08:58;;;;;;;0.70;0.65;;;24.40;57.60;;;;;;6244369;28;20033;-69
2021/08/04 00:11:59;;;;;;;1.48;0.68;;;24.40;57.50;;;;;;6244509;28;20026;-69
2021/08/04 00:14:59;;;;;;;0.60;0.50;;;24.40;57.50;;;;;;6226324;28;20069;-69
2021/08/04 00:18:00;;;;;;;0.60;0.60;;;24.40;57.50;;;;;;6224758;28;20557;-69
2021/08/04 00:21:00;;;;;;;0.50;0.50;;;24.40;57.50;;;;;;6244627;28;20381;-68
2021/08/04 00:24:01;;;;;;;0.57;0.50;;;24.40;57.60;;;;;;6243838;28;20388;-70
2021/08/04 00:27:02;;;;;;;0.50;0.50;;;24.40;57.60;;;;;;6244085;28;20313;-69
2021/08/04 00:30:04;;;;;;;0.50;0.50;;;24.40;58.30;;;;;;6244074;28;20052;-69
2021/08/04 00:33:04;;;;;;;0.50;0.50;;;24.40;57.60;;;;;;6244070;28;20033;-69
2021/08/04 00:36:05;;;;;;;0.60;0.60;;;24.40;57.60;;;;;;6243999;28;20029;-69
2021/08/04 00:39:05;;;;;;;0.60;0.60;;;24.40;57.50;;;;;;6242506;28;20055;-69
2021/08/04 00:42:07;;;;;;;0.60;0.60;;;24.40;57.60;;;;;;6242693;28;20040;-69
2021/08/04 00:45:08;;;;;;;0.60;0.60;;;24.40;57.50;;;;;;6243576;28;20030;-69
2021/08/04 00:48:09;;;;;;;0.57;0.50;;;24.40;57.60;;;;;;6243523;28;20034;-69
2021/08/04 00:51:10;;;;;;;0.80;0.70;;;24.40;57.60;;;;;;6243636;28;20036;-69
2021/08/04 00:54:11;;;;;;;1.15;0.80;;;24.40;57.60;;;;;;6243165;28;20033;-69
2021/08/04 00:57:11;;;;;;;0.70;0.60;;;24.40;57.60;;;;;;6243697;28;20111;-69
2021/08/04 01:00:12;;;;;;;0.95;0.63;;;24.40;57.60;;;;;;6243193;28;20029;-69
2021/08/04 01:03:17;;;;;;;0.90;0.75;;;24.40;57.60;;;;;;6242644;28;20044;-69
2021/08/04 01:06:21;;;;;;;;;;;24.40;57.60;;;;;;6243136;28;20043;-69
2021/08/04 01:09:26;;;;;;;0.60;0.60;;;24.40;57.60;;;;;;6243080;28;19910;-69
2021/08/04 01:12:33;;;;;;;0.60;0.50;;;24.40;57.60;;;;;;6243264;28;20086;-69
2021/08/04 01:15:50;;;;;;;0.93;0.68;;;24.40;57.60;;;;;;6232768;28;20024;-69
2021/08/04 01:19:13;;;;;;;0.60;0.60;;;24.40;57.60;;;;;;6242776;28;20030;-69
2021/08/04 01:22:19;;;;;;;0.52;0.52;;;24.40;57.60;;;;;;6218307;28;20025;-69
2021/08/04 01:25:23;;;;;;;0.70;0.70;;;24.40;57.60;;;;;;6227187;28;20022;-69
2021/08/04 01:28:30;;;;;;;0.40;0.40;;;24.40;57.60;;;;;;6242551;28;20037;-69
2021/08/04 01:31:32;;;;;;;0.70;0.60;;;24.40;57.70;;;;;;6242686;28;20038;-69
2021/08/04 01:34:36;;;;;;;0.57;0.57;;;24.40;57.60;;;;;;6242006;28;20026;-70
2021/08/04 01:37:38;;;;;;;0.68;0.60;;;24.40;57.60;;;;;;6242610;28;20021;-69
2021/08/04 01:40:41;;;;;;;0.68;0.68;;;24.40;57.60;;;;;;6242568;28;20121;-69
2021/08/04 01:43:42;;;;;;;0.60;0.60;;;24.40;57.60;;;;;;6242347;28;20056;-70
2021/08/04 01:46:43;;;;;;;0.50;0.50;;;24.40;57.60;;;;;;6241945;28;20499;-70
2021/08/04 01:49:45;;;;;;;0.80;0.57;;;24.40;57.60;;;;;;6242324;28;20429;-69
2021/08/04 01:52:46;;;;;;;0.60;0.55;;;24.40;57.60;;;;;;6242126;28;20042;-69
2021/08/04 01:55:47;;;;;;;0.65;0.65;;;24.40;57.60;;;;;;6242124;28;20404;-69
2021/08/04 01:58:47;;;;;;;0.75;0.73;;;24.40;57.60;;;;;;6242074;28;20254;-69
2021/08/04 02:01:48;;;;;;;0.70;0.55;;;24.40;57.60;;;;;;6241874;28;20038;-69
2021/08/04 02:04:51;;;;;;;0.88;0.60;;;24.40;57.60;;;;;;6241799;28;20025;-69
2021/08/04 02:08:00;;;;;;;0.43;0.43;;;24.40;58.30;;;;;;6242132;28;20133;-68
2021/08/04 02:11:11;;;;;;;0.55;0.50;;;24.40;57.60;;;;;;6241803;28;20025;-68
2021/08/04 02:14:24;;;;;;;0.50;0.47;;;24.40;57.60;;;;;;6230314;28;20041;-69
2021/08/04 02:18:06;;;;;;;0.60;0.40;;;24.40;57.60;;;;;;6235370;28;20029;-69
2021/08/04 02:21:07;;;;;;;0.60;0.50;;;24.40;57.60;;;;;;6237849;28;20029;-69
2021/08/04 02:24:11;;;;;;;0.50;0.50;;;24.40;57.60;;;;;;6241729;28;20037;-69
2021/08/04 02:27:13;;;;;;;0.65;0.55;;;24.40;57.60;;;;;;6240963;28;20041;-69
2021/08/04 02:30:15;;;;;;;0.55;0.52;;;24.40;57.60;;;;;;6241296;28;20034;-69
2021/08/04 02:33:17;;;;;;;0.68;0.60;;;24.40;57.60;;;;;;6241008;28;20129;-69
2021/08/04 02:36:18;;;;;;;0.65;0.60;;;24.40;57.60;;;;;;6241488;28;20037;-69
2021/08/04 02:39:20;;;;;;;0.60;0.60;;;24.40;57.60;;;;;;6241199;28;20524;-69
2021/08/04 02:42:21;;;;;;;0.82;0.73;;;24.40;57.70;;;;;;6239308;28;20140;-69
2021/08/04 02:45:22;;;;;;;0.77;0.60;;;24.40;57.70;;;;;;6240863;28;20487;-69
2021/08/04 02:48:23;;;;;;;0.50;0.43;;;24.40;57.70;;;;;;6241100;28;20065;-69
2021/08/04 02:51:25;;;;;;;0.50;0.40;;;24.40;57.60;;;;;;6240865;28;20017;-69
2021/08/04 02:54:25;;;;;;;0.60;0.60;;;24.40;57.60;;;;;;6240449;28;20553;-69
2021/08/04 02:57:26;;;;;;;0.60;0.60;;;24.40;57.60;;;;;;6240560;28;20061;-69
2021/08/04 03:00:27;;;;;;;0.73;0.60;;;24.40;57.60;;;;;;6241117;28;20487;-69
2021/08/04 03:03:27;;;;;;;0.50;0.47;;;24.40;57.70;;;;;;6240205;28;20108;-69
2021/08/04 03:06:28;;;;;;;0.60;0.60;;;24.40;57.70;;;;;;6240199;28;20073;-69
2021/08/04 03:09:29;;;;;;;1.05;0.60;;;24.40;57.70;;;;;;6240517;28;20455;-70
2021/08/04 03:12:30;;;;;;;0.57;0.52;;;24.40;58.40;;;;;;6240477;28;20072;-72
2021/08/04 03:15:32;;;;;;;0.75;0.50;;;24.40;57.60;;;;;;6218292;28;20123;-72
2021/08/04 03:18:33;;;;;;;1.05;0.70;;;24.40;57.70;;;;;;6230690;28;20036;-69
2021/08/04 03:21:34;;;;;;;0.43;0.43;;;24.40;57.60;;;;;;6240454;28;20109;-69
2021/08/04 03:24:34;;;;;;;0.60;0.57;;;24.40;57.70;;;;;;6240082;28;20080;-69
2021/08/04 03:27:35;;;;;;;0.50;0.50;;;24.40;57.60;;;;;;6240335;28;20334;-70
2021/08/04 03:30:35;;;;;;;0.30;0.30;;;24.40;57.70;;;;;;6240339;28;20025;-69
2021/08/04 03:33:36;;;;;;;0.43;0.43;;;24.40;57.70;;;;;;6239988;28;20099;-69
2021/08/04 03:36:36;;;;;;;0.68;0.50;;;24.40;57.70;;;;;;6240689;28;20025;-69
2021/08/04 03:39:37;;;;;;;0.50;0.50;;;24.40;57.60;;;;;;6239965;28;20029;-70
2021/08/04 03:42:38;;;;;;;0.95;0.47;;;24.40;57.70;;;;;;6240054;28;20068;-69
2021/08/04 03:45:39;;;;;;;0.60;0.60;;;24.40;57.60;;;;;;6240220;28;20038;-69
2021/08/04 03:48:39;;;;;;;0.57;0.50;;;24.40;57.60;;;;;;6240192;28;20693;-69
2021/08/04 03:51:40;;;;;;;0.47;0.47;;;24.40;57.60;;;;;;6240007;28;20040;-69
2021/08/04 03:54:40;;;;;;;0.40;0.40;;;24.40;57.60;;;;;;6239812;28;20040;-69
2021/08/04 03:57:41;;;;;;;0.70;0.50;;;24.40;57.60;;;;;;6239713;28;20507;-69
2021/08/04 04:00:44;;;;;;;0.45;0.45;;;24.40;57.70;;;;;;6240558;28;20045;-69
2021/08/04 04:03:44;;;;;;;0.40;0.40;;;24.40;57.70;;;;;;6239684;28;20374;-69
2021/08/04 04:06:45;;;;;;;0.80;0.50;;;24.40;57.70;;;;;;6240073;28;20029;-69
2021/08/04 04:09:45;;;;;;;0.50;0.50;;;24.40;57.70;;;;;;6239788;28;20037;-70
2021/08/04 04:12:46;;;;;;;0.35;0.35;;;24.40;57.60;;;;;;6240137;28;20106;-69
2021/08/04 04:15:46;;;;;;;0.82;0.68;;;24.40;57.60;;;;;;6215495;28;20022;-69
2021/08/04 04:18:47;;;;;;;0.50;0.50;;;24.40;57.60;;;;;;6229635;28;20240;-69
2021/08/04 04:21:47;;;;;;;1.00;0.50;;;24.40;57.60;;;;;;6244180;28;20103;-69
2021/08/04 04:24:48;;;;;;;0.60;0.45;;;24.40;57.60;;;;;;6244376;28;20021;-69
2021/08/04 04:27:48;;;;;;;0.40;0.40;;;24.40;57.60;;;;;;6244094;28;20038;-70
2021/08/04 04:30:49;;;;;;;0.60;0.60;;;24.40;57.60;;;;;;6244081;28;20033;-69
2021/08/04 04:33:49;;;;;;;0.50;0.50;;;24.40;57.70;;;;;;6243751;28;20539;-70
2021/08/04 04:36:50;;;;;;;0.52;0.52;;;24.40;57.70;;;;;;6244119;28;20025;-69
2021/08/04 04:39:50;;;;;;;0.80;0.65;;;24.40;57.70;;;;;;6243675;28;20022;-69
2021/08/04 04:42:51;;;;;;;0.50;0.50;;;24.40;57.70;;;;;;6243657;28;20053;-69
2021/08/04 04:45:51;;;;;;;0.80;0.63;;;24.40;57.70;;;;;;6243440;28;20484;-69
2021/08/04 04:48:52;;;;;;;0.60;0.60;;;24.40;57.70;;;;;;6243849;28;20030;-69
2021/08/04 04:51:52;;;;;;;0.57;0.50;;;24.40;57.60;;;;;;6243649;28;20025;-69
2021/08/04 04:54:53;;;;;;;0.77;0.70;;;24.40;57.70;;;;;;6243512;28;20042;-69
2021/08/04 04:57:53;;;;;;;0.80;0.75;;;24.40;57.60;;;;;;6243454;28;20033;-69
2021/08/04 05:00:54;;;;;;;0.82;0.52;;;24.40;57.70;;;;;;6241589;28;20029;-69
2021/08/04 05:03:55;;;;;;;0.85;0.60;;;24.40;57.60;;;;;;6242858;28;20048;-69
2021/08/04 05:06:55;;;;;;;0.70;0.60;;;24.40;57.70;;;;;;6243544;28;20041;-69
2021/08/04 05:09:55;;;;;;;0.90;0.65;;;24.40;57.70;;;;;;6243134;28;20021;-69
2021/08/04 05:12:56;;;;;;;0.77;0.60;;;24.40;57.70;;;;;;6242369;28;20461;-70
2021/08/04 05:15:57;;;;;;;1.15;0.60;;;24.40;57.70;;;;;;6234704;28;20109;-69
2021/08/04 05:18:57;;;;;;;0.65;0.60;;;24.40;57.60;;;;;;6243179;28;20036;-69
2021/08/04 05:21:58;;;;;;;0.82;0.70;;;24.40;57.70;;;;;;6227970;28;20033;-69
2021/08/04 05:24:58;;;;;;;0.93;0.68;;;24.40;57.70;;;;;;6235009;28;20029;-69
2021/08/04 05:27:59;;;;;;;0.90;0.65;;;24.40;57.70;;;;;;6237951;28;20033;-69
2021/08/04 05:30:59;;;;;;;3.60;0.60;;;24.40;57.60;;;;;;6241553;28;20091;-69
2021/08/04 05:34:00;;;;;;;1.10;0.70;;;24.40;57.60;;;;;;6245431;28;20037;-68
2021/08/04 05:37:00;;;;;;;0.70;0.60;;;24.40;57.60;;;;;;6241115;28;20033;-71
2021/08/04 05:40:01;;;;;;;1.10;0.70;;;24.40;57.70;;;;;;6239524;28;20028;-71
2021/08/04 05:43:01;;;;;;;0.80;0.50;;;24.50;57.90;;;;;;6240897;28;20032;-71
2021/08/04 05:46:02;;;;;;;1.20;0.70;;;24.50;57.70;;;;;;6241978;28;20029;-70
2021/08/04 05:49:02;;;;;;;3.30;0.60;;;24.50;57.70;;;;;;6241386;28;20676;-70
2021/08/04 05:52:03;;;;;;;0.73;0.55;;;24.50;57.70;;;;;;6241423;28;20033;-70
2021/08/04 05:55:05;;;;;;;1.67;0.90;;;24.50;57.70;;;;;;6241005;28;20268;-71
2021/08/04 05:58:05;;;;;;;0.73;0.60;;;24.50;57.70;;;;;;6241208;28;20072;-71
2021/08/04 06:01:06;;;;;;;2.90;0.77;;;24.50;57.70;;;;;;6235834;28;20600;-70
2021/08/04 06:04:06;;;;;;;1.63;0.70;;;24.40;57.60;;;;;;6228673;28;20078;-71
2021/08/04 06:07:07;;;;;;;1.77;0.70;;;24.40;57.70;;;;;;6243293;28;20124;-71
2021/08/04 06:10:08;;;;;;;0.90;0.85;;;24.40;57.60;;;;;;6243744;28;20065;-70
2021/08/04 06:13:08;;;;;;;2.55;0.73;;;24.40;57.70;;;;;;6240078;28;20030;-70
2021/08/04 06:16:09;;;;;;;1.00;0.52;;;24.50;57.80;;;;;;6238749;28;20060;-71
2021/08/04 06:19:09;;;;;;;1.45;0.70;;;24.40;57.70;;;;;;6221139;28;20037;-70
2021/08/04 06:22:10;;;;;;;1.17;0.80;;;24.40;57.70;;;;;;6232227;28;20099;-71
2021/08/04 06:25:11;;;;;;;2.95;0.90;;;24.40;57.70;;;;;;6243573;28;20633;-70
2021/08/04 06:28:11;;;;;;;4.55;0.85;;;24.50;57.80;;;;;;6244620;28;20392;-70
2021/08/04 06:31:12;;;;;;;8.82;1.10;;;24.50;57.80;;;;;;6244367;28;20400;-70
2021/08/04 06:34:12;;;;;;;5.43;1.10;;;24.40;57.70;;;;;;6244637;28;20484;-70
2021/08/04 06:37:13;;;;;;;4.32;0.90;;;24.40;57.70;;;;;;6243644;28;20561;-70
2021/08/04 06:40:13;;;;;;;1.67;1.00;;;24.40;57.70;;;;;;6243622;28;20453;-71
2021/08/04 06:43:14;;;;;;;5.20;1.00;;;24.40;57.70;;;;;;6243321;28;20043;-71
2021/08/04 06:46:15;;;;;;;6.03;1.20;;;24.40;58.40;;;;;;6243814;28;20035;-70
2021/08/04 06:49:15;;;;;;;2.15;1.05;;;24.40;57.70;;;;;;6243908;28;20479;-70
2021/08/04 06:52:16;;;;;;;1.33;0.93;;;24.40;57.80;;;;;;6243726;28;20068;-71
2021/08/04 06:55:16;;;;;;;1.98;1.10;;;24.40;57.80;;;;;;6244145;28;20077;-70
2021/08/04 06:58:17;;;;;;;1.55;1.30;;;24.40;57.80;;;;;;6243693;28;20461;-71
2021/08/04 07:01:18;;;;;;;1.88;0.95;;;24.40;57.70;;;;;;6243721;28;20042;-71
2021/08/04 07:04:18;;;;;;;3.75;1.23;;;24.40;57.70;;;;;;6242283;28;20109;-70
2021/08/04 07:07:19;;;;;;;1.42;1.02;;;24.40;57.70;;;;;;6243756;28;20710;-70
2021/08/04 07:10:19;;;;;;;4.93;1.15;;;24.40;57.70;;;;;;6243875;28;20107;-71
2021/08/04 07:13:22;;;;;;;1.83;0.90;;;24.40;57.70;;;;;;6239072;28;20385;-70
2021/08/04 07:16:22;;;;;;;1.40;0.82;;;24.40;57.70;;;;;;6221238;28;20507;-71
2021/08/04 07:19:23;;;;;;;1.20;0.90;;;24.40;57.70;;;;;;6243606;28;20026;-70
2021/08/04 07:22:23;;;;;;;1.42;0.98;;;24.40;57.70;;;;;;6243379;28;20387;-70
2021/08/04 07:25:24;;;;;;;1.15;0.95;;;24.40;57.80;;;;;;6243552;28;20109;-71
2021/08/04 07:28:24;;;;;;;3.22;1.08;;;24.40;57.70;;;;;;6243213;28;20614;-70
2021/08/04 07:31:25;;;;;;;1.08;0.80;;;24.40;57.70;;;;;;6243564;28;20309;-70
2021/08/04 07:34:25;;;;;;;4.13;1.00;;;24.40;57.70;;;;;;6242950;28;20120;-70
2021/08/04 07:37:30;;;;;;;2.60;1.00;;;24.40;57.70;;;;;;6243039;28;20021;-70
2021/08/04 07:40:30;;;;;;;1.30;1.00;;;24.40;57.70;;;;;;6243915;28;20061;-70
2021/08/04 07:43:31;;;;;;;1.00;0.90;;;24.40;57.70;;;;;;6242865;28;20040;-70
2021/08/04 07:46:32;;;;;;;1.40;0.90;;;24.40;57.70;;;;;;6243535;28;20044;-70
2021/08/04 07:49:32;;;;;;;1.85;0.90;;;24.40;57.70;;;;;;6242641;28;20337;-70
2021/08/04 07:52:33;;;;;;;1.55;1.08;;;24.40;57.70;;;;;;6245337;28;20090;-70
2021/08/04 07:55:33;;;;;;;1.05;0.95;;;24.40;57.70;;;;;;6248148;28;20064;-70
2021/08/04 07:58:34;;;;;;;1.65;0.82;;;24.40;57.70;;;;;;6247955;28;20022;-70
2021/08/04 08:01:35;;;;;;;1.38;1.00;;;24.40;57.70;;;;;;6247768;28;20038;-70
2021/08/04 08:04:36;;;;;;;1.08;0.88;;;24.40;57.70;;;;;;6247623;28;20100;-70
2021/08/04 08:07:36;;;;;;;1.10;0.75;;;24.40;58.40;;;;;;6247738;28;20029;-69
2021/08/04 08:10:37;;;;;;;1.20;1.00;;;24.40;57.70;;;;;;6247702;28;20022;-71
2021/08/04 08:13:38;;;;;;;1.50;1.02;;;24.40;57.70;;;;;;6244460;28;20065;-70
2021/08/04 08:16:38;;;;;;;1.27;1.02;;;24.40;57.70;;;;;;6248077;28;20030;-72
2021/08/04 08:19:39;;;;;;;1.10;1.00;;;24.40;57.70;;;;;;6247327;28;20048;-73
2021/08/04 08:22:40;;;;;;;3.10;1.00;;;24.40;57.70;;;;;;6247437;28;20117;-71
2021/08/04 08:25:41;;;;;;;1.30;1.00;;;24.40;57.70;;;;;;6247170;28;20035;-70
2021/08/04 08:28:41;;;;;;;1.27;1.10;;;24.40;57.70;;;;;;6247790;28;20045;-71
2021/08/04 08:31:42;;;;;;;1.00;0.90;;;24.40;57.70;;;;;;6246999;28;20025;-71
2021/08/04 08:34:43;;;;;;;0.77;0.75;;;24.40;57.70;;;;;;6247500;28;20048;-70
2021/08/04 08:37:46;;;;;;;1.27;1.00;;;24.40;57.70;;;;;;6247527;28;20485;-71
2021/08/04 08:40:47;;;;;;;0.85;0.70;;;24.40;57.70;;;;;;6247440;28;20117;-71
2021/08/04 08:43:47;;;;;;;1.20;1.00;;;24.40;57.70;;;;;;6246588;28;20047;-71
2021/08/04 08:46:48;;;;;;;1.33;1.00;;;24.40;57.70;;;;;;6247445;28;20037;-71
2021/08/04 08:49:50;;;;;;;1.23;0.90;;;24.40;57.70;;;;;;6247350;28;20026;-70
2021/08/04 08:52:50;;;;;;;0.90;0.80;;;24.40;58.50;;;;;;6246964;28;20073;-71
2021/08/04 08:55:51;;;;;;;1.38;0.90;;;24.40;57.70;;;;;;6247066;28;20775;-71
2021/08/04 08:58:54;;;;;;;0.95;0.85;;;24.40;57.70;;;;;;6246284;28;20033;-70
2021/08/04 09:01:54;;;;;;;0.80;0.70;;;24.40;57.80;;;;;;6246282;28;20021;-70
2021/08/04 09:05:05;;;;;;;1.25;0.88;;;24.40;57.70;;;;;;6245476;28;20085;-71
2021/08/04 09:08:28;;;;;;;1.10;0.90;;;24.40;57.70;;;;;;6246296;28;20237;-71
2021/08/04 09:11:28;;;;;;;1.00;0.90;;;24.40;57.70;;;;;;6246276;28;20022;-71
2021/08/04 09:14:34;;;;;;;0.95;0.77;;;24.40;57.70;;;;;;6232672;28;20026;-70
2021/08/04 09:17:34;;;;;;;1.23;0.90;;;24.40;57.70;;;;;;6246605;28;20437;-71
2021/08/04 09:20:54;;;;;;;0.80;0.70;;;24.40;57.70;;;;;;6245083;28;20025;-70
2021/08/04 09:23:56;;;;;;;1.10;0.80;;;24.40;57.70;;;;;;6245899;28;20108;-70
2021/08/04 09:26:56;;;;;;;1.20;1.10;;;24.40;57.70;;;;;;6244603;28;20034;-71
2021/08/04 09:29:58;;;;;;;1.00;0.80;;;24.40;57.70;;;;;;6246236;28;20443;-71
2021/08/04 09:33:26;;;;;;;1.10;0.80;;;24.40;57.70;;;;;;6243890;28;20025;-71
2021/08/04 09:36:28;;;;;;;1.17;0.77;;;24.40;57.60;;;;;;6245506;28;20487;-71
2021/08/04 09:39:29;;;;;;;1.25;0.88;;;24.40;57.70;;;;;;6245392;28;20036;-70
2021/08/04 09:42:59;;;;;;;1.23;0.98;;;24.40;57.70;;;;;;6245962;28;20372;-71
2021/08/04 09:45:59;;;;;;;0.88;0.77;;;24.40;57.60;;;;;;6240659;28;20037;-71
2021/08/04 09:49:14;;;;;;;1.05;0.82;;;24.40;57.60;;;;;;6245252;28;20033;-73
2021/08/04 09:52:15;;;;;;;1.25;0.90;;;24.40;57.60;;;;;;6244916;28;20410;-71
2021/08/04 09:55:17;;;;;;;0.90;0.90;;;24.40;57.70;;;;;;6244950;28;20053;-70
2021/08/04 09:58:24;;;;;;;0.73;0.73;;;24.40;57.70;;;;;;6244576;28;20072;-71
2021/08/04 10:01:39;;;;;;;0.90;0.80;;;24.40;57.70;;;;;;6244762;28;20072;-73
2021/08/04 10:04:39;;;;;;;1.25;0.98;;;24.40;57.70;;;;;;6244941;28;20493;-70
2021/08/04 10:07:59;;;;;;;1.13;0.80;;;24.40;57.70;;;;;;6244331;28;20123;-71
2021/08/04 10:11:00;;;;;;;1.00;0.90;;;24.40;57.70;;;;;;6244663;28;20028;-71
2021/08/04 10:14:00;;;;;;;0.70;0.70;;;24.40;57.70;;;;;;6234766;28;20508;-71
2021/08/04 10:17:05;;;;;;;1.20;0.90;;;24.40;57.70;;;;;;6230937;28;20108;-70
2021/08/04 10:20:06;;;;;;;0.95;0.80;;;24.40;57.70;;;;;;6243788;28;20021;-70
2021/08/04 10:23:14;;;;;;;0.80;0.80;;;24.40;57.70;;;;;;6244341;28;20036;-70
2021/08/04 10:26:15;;;;;;;1.10;1.00;;;24.40;57.70;;;;;;6244332;28;20060;-71
2021/08/04 10:29:18;;;;;;;0.80;0.80;;;24.40;57.70;;;;;;6244397;28;20037;-70
2021/08/04 10:32:19;;;;;;;1.05;0.90;;;24.40;57.70;;;;;;6244133;28;20061;-70
2021/08/04 10:35:20;;;;;;;0.75;0.70;;;24.40;57.70;;;;;;6244225;28;20033;-71
2021/08/04 10:38:24;;;;;;;0.60;0.60;;;24.40;57.70;;;;;;6244213;28;20022;-70
2021/08/04 10:41:26;;;;;;;1.08;0.80;;;24.40;57.70;;;;;;6244654;28;20354;-70
2021/08/04 10:44:27;;;;;;;0.70;0.70;;;24.40;57.70;;;;;;6243919;28;20104;-71
2021/08/04 10:47:28;;;;;;;0.82;0.75;;;24.40;57.70;;;;;;6242268;28;20034;-70
2021/08/04 10:50:29;;;;;;;0.70;0.70;;;24.40;57.70;;;;;;6243658;28;20109;-71
2021/08/04 10:53:29;;;;;;;1.30;0.90;;;24.40;57.70;;;;;;6243647;28;20469;-71
2021/08/04 10:56:33;;;;;;;0.88;0.77;;;24.40;57.70;;;;;;6243611;28;20064;-70
2021/08/04 10:59:34;;;;;;;1.00;0.88;;;24.40;57.70;;;;;;6243614;28;20026;-70
2021/08/04 11:02:35;;;;;;;1.13;0.93;;;24.40;57.70;;;;;;6242366;28;20021;-71
2021/08/04 11:06:09;;;;;;;0.57;0.52;;;24.40;57.70;;;;;;6243930;28;20390;-71
2021/08/04 11:09:12;;;;;;;1.95;0.90;;;24.40;57.70;;;;;;6243265;28;20415;-71
2021/08/04 11:12:15;;;;;;;1.00;0.80;;;24.40;57.70;;;;;;6242774;28;20113;-71
2021/08/04 11:15:26;;;;;;;0.77;0.73;;;24.40;57.70;;;;;;6223997;28;20485;-71
2021/08/04 11:18:26;;;;;;;0.82;0.80;;;24.40;57.70;;;;;;6228530;28;20073;-70
2021/08/04 11:21:27;;;;;;;0.60;0.60;;;24.40;57.70;;;;;;6243702;28;20021;-70
2021/08/04 11:24:57;;;;;;;0.70;0.60;;;24.40;57.70;;;;;;6242908;28;20037;-70
2021/08/04 11:27:58;;;;;;;0.57;0.57;;;24.40;57.70;;;;;;6246927;28;20046;-70
2021/08/04 11:31:09;;;;;;;1.10;0.65;;;24.40;57.70;;;;;;6248137;28;20030;-70
2021/08/04 11:34:36;;;;;;;0.80;0.63;;;24.40;57.70;;;;;;6247996;28;20112;-70
2021/08/04 11:37:43;;;;;;;0.85;0.80;;;24.40;57.70;;;;;;6247205;28;20123;-70
2021/08/04 11:40:44;;;;;;;0.73;0.70;;;24.40;57.70;;;;;;6248594;28;20025;-70
2021/08/04 11:43:46;;;;;;;0.68;0.60;;;24.40;57.70;;;;;;6247469;28;20167;-70
2021/08/04 11:47:01;;;;;;;0.60;0.60;;;24.40;57.70;;;;;;6248523;28;20031;-71
2021/08/04 11:50:05;;;;;;;0.75;0.55;;;24.40;57.70;;;;;;6248189;28;20033;-70
2021/08/04 11:53:06;;;;;;;0.60;0.60;;;24.40;57.70;;;;;;6248397;28;20026;-70
2021/08/04 11:56:06;;;;;;;0.93;0.80;;;24.40;57.70;;;;;;6248004;28;20056;-71
2021/08/04 11:59:07;;;;;;;0.80;0.75;;;24.40;57.70;;;;;;6247768;28;20049;-71
2021/08/04 12:02:07;;;;;;;0.68;0.60;;;24.40;57.70;;;;;;6247789;28;20502;-70
2021/08/04 12:05:09;;;;;;;0.80;0.70;;;24.40;57.70;;;;;;6247870;28;20025;-70
2021/08/04 12:08:09;;;;;;;0.70;0.60;;;24.40;57.70;;;;;;6247306;28;20033;-70
2021/08/04 12:11:10;;;;;;;0.93;0.60;;;24.40;57.70;;;;;;6247542;28;20373;-70
2021/08/04 12:14:13;;;;;;;0.80;0.80;;;24.40;57.70;;;;;;6241707;28;20034;-70
2021/08/04 12:17:24;;;;;;;0.60;0.60;;;24.40;57.80;;;;;;6247621;28;20082;-70
2021/08/04 12:20:27;;;;;;;0.95;0.80;;;24.40;57.70;;;;;;6238929;28;20449;-71
2021/08/04 12:23:27;;;;;;;0.63;0.63;;;24.40;57.70;;;;;;6247183;28;20502;-70
2021/08/04 12:26:45;;;;;;;0.77;0.73;;;24.40;57.70;;;;;;6247270;28;20033;-71
2021/08/04 12:29:45;;;;;;;0.60;0.60;;;24.40;57.70;;;;;;6246903;28;20021;-71
2021/08/04 12:33:07;;;;;;;0.57;0.57;;;24.40;57.70;;;;;;6246761;28;20027;-70
2021/08/04 12:39:08;;;;;;;0.60;0.60;;;24.40;57.70;;;;;;6246163;28;20048;-70
2021/08/04 12:42:09;;;;;;;0.60;0.60;;;24.40;57.80;;;;;;6246255;28;20041;-70
2021/08/04 12:45:27;;;;;;;1.40;0.63;;;24.40;57.80;;;;;;6247068;28;20380;-70
2021/08/04 12:48:38;;;;;;;0.63;0.60;;;24.40;57.70;;;;;;6246945;28;20026;-70
2021/08/04 12:51:39;;;;;;;1.38;0.77;;;24.40;57.70;;;;;;6248054;28;20612;-70
2021/08/04 12:54:40;;;;;;;0.70;0.70;;;24.40;57.80;;;;;;6247076;28;20030;-70
2021/08/04 12:57:40;;;;;;;1.17;0.75;;;24.40;57.80;;;;;;6246473;28;20088;-71
2021/08/04 13:00:41;;;;;;;0.90;0.70;;;24.40;57.80;;;;;;6246643;28;20021;-71
2021/08/04 13:03:41;;;;;;;0.90;0.70;;;24.40;57.80;;;;;;6247091;28;20029;-70
2021/08/04 13:06:57;;;;;;;0.70;0.50;;;24.40;57.80;;;;;;6246187;28;20065;-70
2021/08/04 13:09:57;;;;;;;0.60;0.60;;;24.40;57.80;;;;;;6246027;28;20038;-70
2021/08/04 13:12:58;;;;;;;0.50;0.50;;;24.40;57.80;;;;;;6245535;28;20454;-70
2021/08/04 13:15:58;;;;;;;0.77;0.63;;;24.40;57.80;;;;;;6232094;28;20025;-70
2021/08/04 13:19:00;;;;;;;0.57;0.50;;;24.40;57.80;;;;;;6246267;28;20033;-70
2021/08/04 13:22:06;;;;;;;0.70;0.70;;;24.40;57.80;;;;;;6245695;28;20033;-70
2021/08/04 13:25:07;;;;;;;0.77;0.60;;;24.40;57.80;;;;;;6245805;28;20072;-70
2021/08/04 13:28:13;;;;;;;0.60;0.60;;;24.40;57.80;;;;;;6245706;28;20030;-70
2021/08/04 13:31:17;;;;;;;0.60;0.60;;;24.40;57.80;;;;;;6246370;28;20079;-70
2021/08/04 13:34:17;;;;;;;0.70;0.60;;;24.40;57.80;;;;;;6245606;28;20034;-70
2021/08/04 13:37:18;;;;;;;0.50;0.50;;;24.40;57.80;;;;;;6245148;28;20028;-71
2021/08/04 13:40:18;;;;;;;0.63;0.60;;;24.40;57.80;;;;;;6245604;28;20021;-70
2021/08/04 13:43:19;;;;;;;0.50;0.50;;;24.40;57.80;;;;;;6246006;28;20029;-70
2021/08/04 13:46:20;;;;;;;0.55;0.52;;;24.40;57.70;;;;;;6245262;28;20542;-70
2021/08/04 13:49:20;;;;;;;0.65;0.60;;;24.40;57.70;;;;;;6245108;28;20033;-70
2021/08/04 13:52:21;;;;;;;0.60;0.60;;;24.40;57.70;;;;;;6245035;28;20108;-70
2021/08/04 13:55:23;;;;;;;0.93;0.88;;;24.40;57.70;;;;;;6244087;28;20061;-70
2021/08/04 13:58:24;;;;;;;0.70;0.70;;;24.40;57.80;;;;;;6244558;28;20065;-71
2021/08/04 14:01:25;;;;;;;0.60;0.60;;;24.40;57.70;;;;;;6244446;28;20040;-71
2021/08/04 14:04:25;;;;;;;0.70;0.50;;;24.40;57.70;;;;;;6245105;28;20032;-70
2021/08/04 14:07:26;;;;;;;0.60;0.52;;;24.40;57.70;;;;;;6244726;28;20037;-70
2021/08/04 14:10:26;;;;;;;0.75;0.75;;;24.40;57.70;;;;;;6245552;28;20064;-71
2021/08/04 14:13:27;;;;;;;0.60;0.60;;;24.40;57.70;;;;;;6241365;28;20484;-70
2021/08/04 14:16:29;;;;;;;0.52;0.50;;;24.40;57.70;;;;;;6244995;28;20014;-70
2021/08/04 14:19:29;;;;;;;1.17;0.85;;;24.40;57.70;;;;;;6244243;28;20025;-70
2021/08/04 14:22:30;;;;;;;1.45;0.90;;;24.40;57.70;;;;;;6244561;28;20045;-70
2021/08/04 14:25:30;;;;;;;0.70;0.65;;;24.40;57.80;;;;;;6244525;28;20040;-71
2021/08/04 14:28:31;;;;;;;0.85;0.75;;;24.40;57.70;;;;;;6244106;28;20112;-70
2021/08/04 14:31:31;;;;;;;1.88;0.80;;;24.40;57.70;;;;;;6244162;28;20096;-70
2021/08/04 14:34:32;;;;;;;0.82;0.75;;;24.40;57.80;;;;;;6244425;28;20034;-70
2021/08/04 14:37:33;;;;;;;0.68;0.68;;;24.40;57.70;;;;;;6244023;28;20391;-71
2021/08/04 14:40:34;;;;;;;0.77;0.77;;;24.40;57.70;;;;;;6244420;28;20036;-71
2021/08/04 14:43:34;;;;;;;0.68;0.63;;;24.40;57.80;;;;;;6243817;28;20405;-70
2021/08/04 14:46:35;;;;;;;0.90;0.75;;;24.40;57.80;;;;;;6244131;28;20032;-70
2021/08/04 14:49:36;;;;;;;0.93;0.70;;;24.40;57.80;;;;;;6243913;28;20030;-70
2021/08/04 14:52:36;;;;;;;0.70;0.70;;;24.40;57.80;;;;;;6244185;28;20013;-70
2021/08/04 14:55:37;;;;;;;0.80;0.50;;;24.40;57.80;;;;;;6243655;28;20141;-70
2021/08/04 14:58:38;;;;;;;0.60;0.60;;;24.40;57.80;;;;;;6243931;28;20025;-70
2021/08/04 15:01:39;;;;;;;1.05;0.60;;;24.40;57.80;;;;;;6243276;28;20052;-70
2021/08/04 15:04:39;;;;;;;0.90;0.70;;;24.40;57.80;;;;;;6244279;28;20018;-70
2021/08/04 15:07:40;;;;;;;0.60;0.50;;;24.40;57.80;;;;;;6243554;28;20072;-70
2021/08/04 15:10:40;;;;;;;0.52;0.52;;;24.40;57.80;;;;;;6243815;28;20091;-70
2021/08/04 15:13:41;;;;;;;1.02;0.60;;;24.40;57.80;;;;;;6235186;28;20029;-70
2021/08/04 15:16:42;;;;;;;0.68;0.63;;;24.40;57.80;;;;;;6225206;28;20443;-71
2021/08/04 15:19:42;;;;;;;0.75;0.75;;;24.40;57.80;;;;;;6243403;28;20079;-70
2021/08/04 15:22:43;;;;;;;1.58;0.63;;;24.40;57.80;;;;;;6242345;28;20439;-71
2021/08/04 15:25:44;;;;;;;0.93;0.60;;;24.40;57.80;;;;;;6243593;28;20036;-70
2021/08/04 15:28:46;;;;;;;0.60;0.60;;;24.40;57.80;;;;;;6243450;28;20045;-70
2021/08/04 15:31:47;;;;;;;0.65;0.60;;;24.40;57.90;;;;;;6243266;28;20110;-70
2021/08/04 15:34:48;;;;;;;0.98;0.85;;;24.40;57.80;;;;;;6243169;28;20025;-70
2021/08/04 15:37:48;;;;;;;0.82;0.70;;;24.40;57.80;;;;;;6243213;28;20421;-70
2021/08/04 15:40:50;;;;;;;0.90;0.70;;;24.40;57.80;;;;;;6243697;28;20033;-70
2021/08/04 15:43:51;;;;;;;0.60;0.60;;;24.40;57.80;;;;;;6243264;28;20029;-70
2021/08/04 15:46:51;;;;;;;0.90;0.70;;;24.40;57.90;;;;;;6243386;28;20079;-70
2021/08/04 15:49:52;;;;;;;0.63;0.57;;;24.40;57.90;;;;;;6242935;28;20512;-70
2021/08/04 15:52:53;;;;;;;0.68;0.68;;;24.40;57.80;;;;;;6243092;28;20021;-71
2021/08/04 15:55:53;;;;;;;0.70;0.60;;;24.40;57.80;;;;;;6243067;28;20092;-70